sensor_id;sensor_type;location;lat;lon;timestamp;P1;durP1;ratioP1;P2;durP2;ratioP2
21833;SDS011;11079;51.092;3.458;2022-09-01T00:01:23;5.03;;;1.85;;
21833;SDS011;11079;51.092;3.458;2022-09-01T00:03:53;3.92;;;1.60;;
21833;SDS011;11079;51.092;3.458;2022-09-01T00:06:23;8.38;;;1.90;;
21833;SDS011;11079;51.092;3.458;2022-09-01T00:08:51;2.90;;;1.52;;
21833;SDS011;11079;51.092;3.458;2022-09-01T00:11:18;2.75;;;1.80;;
21833;SDS011;11079;51.092;3.458;2022-09-01T00:13:45;2.75;;;1.90;;
21833;SDS011;11079;51.092;3.458;2022-09-01T00:16:12;3.15;;;1.80;;
21833;SDS011;11079;51.092;3.458;2022-09-01T00:18:41;3.47;;;1.60;;
21833;SDS011;11079;51.092;3.458;2022-09-01T00:21:10;2.08;;;1.77;;
21833;SDS011;11079;51.092;3.458;2022-09-01T00:23:37;3.33;;;1.50;;
21833;SDS011;11079;51.092;3.458;2022-09-01T00:26:02;5.18;;;1.80;;
21833;SDS011;11079;51.092;3.458;2022-09-01T00:28:46;3.38;;;1.60;;
21833;SDS011;11079;51.092;3.458;2022-09-01T00:31:12;5.80;;;1.83;;
21833;SDS011;11079;51.092;3.458;2022-09-01T00:33:42;5.93;;;1.77;;
21833;SDS011;11079;51.092;3.458;2022-09-01T00:36:08;4.18;;;2.10;;
21833;SDS011;11079;51.092;3.458;2022-09-01T00:38:35;5.68;;;1.73;;
21833;SDS011;11079;51.092;3.458;2022-09-01T00:41:02;3.25;;;1.88;;
21833;SDS011;11079;51.092;3.458;2022-09-01T00:43:43;6.65;;;1.70;;
21833;SDS011;11079;51.092;3.458;2022-09-01T00:46:15;3.35;;;1.80;;
21833;SDS011;11079;51.092;3.458;2022-09-01T00:48:44;5.28;;;1.67;;
21833;SDS011;11079;51.092;3.458;2022-09-01T00:51:12;3.67;;;1.85;;
21833;SDS011;11079;51.092;3.458;2022-09-01T00:53:40;4.82;;;2.00;;
21833;SDS011;11079;51.092;3.458;2022-09-01T00:56:07;7.75;;;1.98;;
21833;SDS011;11079;51.092;3.458;2022-09-01T00:58:35;4.28;;;2.03;;
21833;SDS011;11079;51.092;3.458;2022-09-01T01:01:02;3.58;;;1.80;;
21833;SDS011;11079;51.092;3.458;2022-09-01T01:03:29;4.43;;;1.85;;
21833;SDS011;11079;51.092;3.458;2022-09-01T01:05:56;4.32;;;1.67;;
21833;SDS011;11079;51.092;3.458;2022-09-01T01:08:32;2.15;;;1.60;;
21833;SDS011;11079;51.092;3.458;2022-09-01T01:11:09;2.85;;;1.50;;
21833;SDS011;11079;51.092;3.458;2022-09-01T01:13:49;3.05;;;1.52;;
21833;SDS011;11079;51.092;3.458;2022-09-01T01:16:48;2.95;;;1.75;;
21833;SDS011;11079;51.092;3.458;2022-09-01T01:22:11;4.45;;;1.73;;
21833;SDS011;11079;51.092;3.458;2022-09-01T01:25:04;3.78;;;1.90;;
21833;SDS011;11079;51.092;3.458;2022-09-01T01:27:30;3.55;;;1.75;;
21833;SDS011;11079;51.092;3.458;2022-09-01T01:29:59;3.72;;;1.70;;
21833;SDS011;11079;51.092;3.458;2022-09-01T01:32:26;4.50;;;1.80;;
21833;SDS011;11079;51.092;3.458;2022-09-01T01:34:53;3.58;;;1.60;;
21833;SDS011;11079;51.092;3.458;2022-09-01T01:37:20;6.57;;;1.95;;
21833;SDS011;11079;51.092;3.458;2022-09-01T01:39:49;5.40;;;2.10;;
21833;SDS011;11079;51.092;3.458;2022-09-01T01:42:14;3.05;;;1.50;;
21833;SDS011;11079;51.092;3.458;2022-09-01T01:44:42;6.10;;;1.63;;
21833;SDS011;11079;51.092;3.458;2022-09-01T01:47:09;4.65;;;1.98;;
21833;SDS011;11079;51.092;3.458;2022-09-01T01:49:37;4.15;;;2.00;;
21833;SDS011;11079;51.092;3.458;2022-09-01T01:52:08;5.05;;;1.92;;
21833;SDS011;11079;51.092;3.458;2022-09-01T01:54:37;3.75;;;1.63;;
21833;SDS011;11079;51.092;3.458;2022-09-01T01:57:03;4.45;;;1.85;;
21833;SDS011;11079;51.092;3.458;2022-09-01T01:59:28;3.83;;;1.75;;
21833;SDS011;11079;51.092;3.458;2022-09-01T02:01:54;5.00;;;1.70;;
21833;SDS011;11079;51.092;3.458;2022-09-01T02:04:20;5.13;;;1.67;;
21833;SDS011;11079;51.092;3.458;2022-09-01T02:06:47;4.40;;;1.90;;
21833;SDS011;11079;51.092;3.458;2022-09-01T02:09:19;3.45;;;2.00;;
21833;SDS011;11079;51.092;3.458;2022-09-01T02:11:48;3.20;;;1.60;;
21833;SDS011;11079;51.092;3.458;2022-09-01T02:14:21;4.95;;;2.08;;
21833;SDS011;11079;51.092;3.458;2022-09-01T02:16:47;4.65;;;1.80;;
21833;SDS011;11079;51.092;3.458;2022-09-01T02:19:13;2.72;;;1.70;;
21833;SDS011;11079;51.092;3.458;2022-09-01T02:21:44;5.38;;;2.08;;
21833;SDS011;11079;51.092;3.458;2022-09-01T02:24:25;3.88;;;1.80;;
21833;SDS011;11079;51.092;3.458;2022-09-01T02:26:56;3.78;;;1.92;;
21833;SDS011;11079;51.092;3.458;2022-09-01T02:29:26;3.65;;;2.03;;
21833;SDS011;11079;51.092;3.458;2022-09-01T02:31:53;4.50;;;2.20;;
21833;SDS011;11079;51.092;3.458;2022-09-01T02:36:53;2.25;;;1.75;;
21833;SDS011;11079;51.092;3.458;2022-09-01T02:39:34;5.75;;;1.80;;
21833;SDS011;11079;51.092;3.458;2022-09-01T02:42:00;3.38;;;1.77;;
21833;SDS011;11079;51.092;3.458;2022-09-01T02:44:26;5.05;;;2.00;;
21833;SDS011;11079;51.092;3.458;2022-09-01T02:46:53;5.28;;;1.90;;
21833;SDS011;11079;51.092;3.458;2022-09-01T02:49:19;3.38;;;2.03;;
21833;SDS011;11079;51.092;3.458;2022-09-01T02:51:52;3.75;;;1.73;;
21833;SDS011;11079;51.092;3.458;2022-09-01T02:54:22;4.10;;;1.95;;
21833;SDS011;11079;51.092;3.458;2022-09-01T02:56:49;3.45;;;1.90;;
21833;SDS011;11079;51.092;3.458;2022-09-01T02:59:18;4.57;;;1.98;;
21833;SDS011;11079;51.092;3.458;2022-09-01T03:01:45;4.60;;;1.90;;
21833;SDS011;11079;51.092;3.458;2022-09-01T03:04:12;4.28;;;1.60;;
21833;SDS011;11079;51.092;3.458;2022-09-01T03:06:39;5.03;;;1.60;;
21833;SDS011;11079;51.092;3.458;2022-09-01T03:09:06;5.50;;;1.90;;
21833;SDS011;11079;51.092;3.458;2022-09-01T03:11:36;7.32;;;2.10;;
21833;SDS011;11079;51.092;3.458;2022-09-01T03:14:03;4.55;;;1.50;;
21833;SDS011;11079;51.092;3.458;2022-09-01T03:16:30;2.95;;;1.70;;
21833;SDS011;11079;51.092;3.458;2022-09-01T03:18:57;4.53;;;1.95;;
21833;SDS011;11079;51.092;3.458;2022-09-01T03:21:23;3.15;;;1.80;;
21833;SDS011;11079;51.092;3.458;2022-09-01T03:23:52;5.25;;;1.75;;
21833;SDS011;11079;51.092;3.458;2022-09-01T03:26:22;5.28;;;1.60;;
21833;SDS011;11079;51.092;3.458;2022-09-01T03:28:50;5.60;;;1.58;;
21833;SDS011;11079;51.092;3.458;2022-09-01T03:31:17;3.22;;;1.70;;
21833;SDS011;11079;51.092;3.458;2022-09-01T03:33:47;2.30;;;1.58;;
21833;SDS011;11079;51.092;3.458;2022-09-01T03:36:12;2.55;;;1.60;;
21833;SDS011;11079;51.092;3.458;2022-09-01T03:38:47;4.82;;;1.70;;
21833;SDS011;11079;51.092;3.458;2022-09-01T03:41:14;3.80;;;2.13;;
21833;SDS011;11079;51.092;3.458;2022-09-01T03:43:42;3.08;;;2.00;;
21833;SDS011;11079;51.092;3.458;2022-09-01T03:46:09;3.92;;;1.90;;
21833;SDS011;11079;51.092;3.458;2022-09-01T03:48:54;9.65;;;2.25;;
21833;SDS011;11079;51.092;3.458;2022-09-01T03:51:27;8.73;;;2.58;;
21833;SDS011;11079;51.092;3.458;2022-09-01T03:53:55;13.95;;;2.63;;
21833;SDS011;11079;51.092;3.458;2022-09-01T03:56:23;15.52;;;2.67;;
21833;SDS011;11079;51.092;3.458;2022-09-01T03:58:57;12.20;;;2.47;;
21833;SDS011;11079;51.092;3.458;2022-09-01T04:01:24;11.65;;;2.42;;
21833;SDS011;11079;51.092;3.458;2022-09-01T04:03:53;10.73;;;2.15;;
21833;SDS011;11079;51.092;3.458;2022-09-01T04:06:19;5.65;;;2.35;;
21833;SDS011;11079;51.092;3.458;2022-09-01T04:08:48;5.82;;;2.30;;
21833;SDS011;11079;51.092;3.458;2022-09-01T04:11:15;5.55;;;2.35;;
21833;SDS011;11079;51.092;3.458;2022-09-01T04:13:42;6.75;;;2.13;;
21833;SDS011;11079;51.092;3.458;2022-09-01T04:19:13;2.53;;;2.00;;
21833;SDS011;11079;51.092;3.458;2022-09-01T04:21:44;4.97;;;2.55;;
21833;SDS011;11079;51.092;3.458;2022-09-01T04:24:11;4.07;;;2.60;;
21833;SDS011;11079;51.092;3.458;2022-09-01T04:26:39;4.65;;;2.08;;
21833;SDS011;11079;51.092;3.458;2022-09-01T04:29:05;3.85;;;2.30;;
21833;SDS011;11079;51.092;3.458;2022-09-01T04:31:33;4.32;;;2.88;;
21833;SDS011;11079;51.092;3.458;2022-09-01T04:34:02;5.68;;;2.70;;
21833;SDS011;11079;51.092;3.458;2022-09-01T04:36:37;3.17;;;2.35;;
21833;SDS011;11079;51.092;3.458;2022-09-01T04:39:08;4.88;;;2.53;;
21833;SDS011;11079;51.092;3.458;2022-09-01T04:41:37;4.40;;;2.65;;
21833;SDS011;11079;51.092;3.458;2022-09-01T04:44:10;4.82;;;2.80;;
21833;SDS011;11079;51.092;3.458;2022-09-01T04:46:40;4.57;;;2.58;;
21833;SDS011;11079;51.092;3.458;2022-09-01T04:49:09;5.43;;;2.35;;
21833;SDS011;11079;51.092;3.458;2022-09-01T04:51:41;6.07;;;2.55;;
21833;SDS011;11079;51.092;3.458;2022-09-01T04:54:09;3.63;;;2.38;;
21833;SDS011;11079;51.092;3.458;2022-09-01T04:56:41;4.43;;;2.50;;
21833;SDS011;11079;51.092;3.458;2022-09-01T04:59:09;4.18;;;2.47;;
21833;SDS011;11079;51.092;3.458;2022-09-01T05:01:37;4.65;;;2.42;;
21833;SDS011;11079;51.092;3.458;2022-09-01T05:04:43;3.80;;;2.60;;
21833;SDS011;11079;51.092;3.458;2022-09-01T05:07:04;3.00;;;2.70;;
21833;SDS011;11079;51.092;3.458;2022-09-01T05:09:34;9.35;;;3.70;;
21833;SDS011;11079;51.092;3.458;2022-09-01T05:12:00;6.00;;;2.90;;
21833;SDS011;11079;51.092;3.458;2022-09-01T05:14:38;6.20;;;2.92;;
21833;SDS011;11079;51.092;3.458;2022-09-01T05:17:06;6.63;;;3.55;;
21833;SDS011;11079;51.092;3.458;2022-09-01T05:19:45;5.10;;;3.33;;
21833;SDS011;11079;51.092;3.458;2022-09-01T05:22:14;6.18;;;3.45;;
21833;SDS011;11079;51.092;3.458;2022-09-01T05:24:43;5.28;;;3.20;;
21833;SDS011;11079;51.092;3.458;2022-09-01T05:27:08;6.50;;;3.22;;
21833;SDS011;11079;51.092;3.458;2022-09-01T05:29:36;4.53;;;3.13;;
21833;SDS011;11079;51.092;3.458;2022-09-01T05:32:04;5.13;;;3.17;;
21833;SDS011;11079;51.092;3.458;2022-09-01T05:34:34;6.03;;;3.13;;
21833;SDS011;11079;51.092;3.458;2022-09-01T05:37:03;4.38;;;3.00;;
21833;SDS011;11079;51.092;3.458;2022-09-01T05:39:30;6.82;;;3.38;;
21833;SDS011;11079;51.092;3.458;2022-09-01T05:41:57;5.50;;;3.33;;
21833;SDS011;11079;51.092;3.458;2022-09-01T05:44:25;4.28;;;2.78;;
21833;SDS011;11079;51.092;3.458;2022-09-01T05:46:51;5.10;;;3.10;;
21833;SDS011;11079;51.092;3.458;2022-09-01T05:49:18;6.85;;;3.33;;
21833;SDS011;11079;51.092;3.458;2022-09-01T05:51:45;6.85;;;3.05;;
21833;SDS011;11079;51.092;3.458;2022-09-01T05:54:23;6.82;;;3.00;;
21833;SDS011;11079;51.092;3.458;2022-09-01T05:56:51;9.40;;;2.88;;
21833;SDS011;11079;51.092;3.458;2022-09-01T05:59:38;8.98;;;2.67;;
21833;SDS011;11079;51.092;3.458;2022-09-01T06:02:05;6.10;;;2.70;;
21833;SDS011;11079;51.092;3.458;2022-09-01T06:04:33;11.55;;;3.00;;
21833;SDS011;11079;51.092;3.458;2022-09-01T06:06:59;8.88;;;3.03;;
21833;SDS011;11079;51.092;3.458;2022-09-01T06:09:25;7.70;;;2.80;;
21833;SDS011;11079;51.092;3.458;2022-09-01T06:11:51;8.23;;;3.03;;
21833;SDS011;11079;51.092;3.458;2022-09-01T06:14:19;6.82;;;3.28;;
21833;SDS011;11079;51.092;3.458;2022-09-01T06:16:44;6.40;;;3.22;;
21833;SDS011;11079;51.092;3.458;2022-09-01T06:19:11;7.90;;;3.45;;
21833;SDS011;11079;51.092;3.458;2022-09-01T06:21:37;5.07;;;3.38;;
21833;SDS011;11079;51.092;3.458;2022-09-01T06:24:04;5.30;;;2.85;;
21833;SDS011;11079;51.092;3.458;2022-09-01T06:26:32;4.90;;;3.30;;
21833;SDS011;11079;51.092;3.458;2022-09-01T06:29:00;5.72;;;3.33;;
21833;SDS011;11079;51.092;3.458;2022-09-01T06:31:29;8.95;;;3.53;;
21833;SDS011;11079;51.092;3.458;2022-09-01T06:33:58;8.90;;;3.45;;
21833;SDS011;11079;51.092;3.458;2022-09-01T06:36:27;8.90;;;3.63;;
21833;SDS011;11079;51.092;3.458;2022-09-01T06:38:56;7.90;;;4.03;;
21833;SDS011;11079;51.092;3.458;2022-09-01T06:41:24;9.35;;;4.47;;
21833;SDS011;11079;51.092;3.458;2022-09-01T06:43:51;10.32;;;4.50;;
21833;SDS011;11079;51.092;3.458;2022-09-01T06:46:18;8.15;;;4.75;;
21833;SDS011;11079;51.092;3.458;2022-09-01T06:48:45;11.20;;;4.53;;
21833;SDS011;11079;51.092;3.458;2022-09-01T06:51:13;11.02;;;4.97;;
21833;SDS011;11079;51.092;3.458;2022-09-01T06:53:44;9.02;;;4.88;;
21833;SDS011;11079;51.092;3.458;2022-09-01T06:56:15;10.20;;;5.75;;
21833;SDS011;11079;51.092;3.458;2022-09-01T06:58:43;8.13;;;4.90;;
21833;SDS011;11079;51.092;3.458;2022-09-01T07:01:12;9.57;;;5.05;;
21833;SDS011;11079;51.092;3.458;2022-09-01T07:03:44;9.52;;;5.15;;
21833;SDS011;11079;51.092;3.458;2022-09-01T07:06:11;11.23;;;5.45;;
21833;SDS011;11079;51.092;3.458;2022-09-01T07:08:39;9.68;;;4.85;;
21833;SDS011;11079;51.092;3.458;2022-09-01T07:11:17;10.15;;;4.90;;
21833;SDS011;11079;51.092;3.458;2022-09-01T07:13:54;10.73;;;5.00;;
21833;SDS011;11079;51.092;3.458;2022-09-01T07:16:22;11.70;;;4.82;;
21833;SDS011;11079;51.092;3.458;2022-09-01T07:18:51;12.25;;;5.20;;
21833;SDS011;11079;51.092;3.458;2022-09-01T07:21:23;11.50;;;4.95;;
21833;SDS011;11079;51.092;3.458;2022-09-01T07:23:49;9.75;;;5.45;;
21833;SDS011;11079;51.092;3.458;2022-09-01T07:26:15;10.68;;;4.97;;
21833;SDS011;11079;51.092;3.458;2022-09-01T07:28:47;12.88;;;5.30;;
21833;SDS011;11079;51.092;3.458;2022-09-01T07:31:28;8.55;;;5.13;;
21833;SDS011;11079;51.092;3.458;2022-09-01T07:34:01;9.50;;;4.97;;
21833;SDS011;11079;51.092;3.458;2022-09-01T07:36:30;11.10;;;5.55;;
21833;SDS011;11079;51.092;3.458;2022-09-01T07:38:57;12.52;;;5.20;;
21833;SDS011;11079;51.092;3.458;2022-09-01T07:41:26;6.95;;;4.90;;
21833;SDS011;11079;51.092;3.458;2022-09-01T07:43:52;8.32;;;5.25;;
21833;SDS011;11079;51.092;3.458;2022-09-01T07:46:21;10.80;;;5.45;;
21833;SDS011;11079;51.092;3.458;2022-09-01T07:48:48;10.50;;;5.35;;
21833;SDS011;11079;51.092;3.458;2022-09-01T07:51:17;7.80;;;5.43;;
21833;SDS011;11079;51.092;3.458;2022-09-01T07:53:45;6.22;;;5.47;;
21833;SDS011;11079;51.092;3.458;2022-09-01T07:56:12;9.00;;;6.18;;
21833;SDS011;11079;51.092;3.458;2022-09-01T07:58:40;8.45;;;5.35;;
21833;SDS011;11079;51.092;3.458;2022-09-01T08:01:07;7.25;;;5.18;;
21833;SDS011;11079;51.092;3.458;2022-09-01T08:03:34;10.88;;;6.57;;
21833;SDS011;11079;51.092;3.458;2022-09-01T08:06:03;7.25;;;5.43;;
21833;SDS011;11079;51.092;3.458;2022-09-01T08:08:34;12.00;;;5.90;;
21833;SDS011;11079;51.092;3.458;2022-09-01T08:11:02;7.57;;;5.80;;
21833;SDS011;11079;51.092;3.458;2022-09-01T08:13:28;9.68;;;5.55;;
21833;SDS011;11079;51.092;3.458;2022-09-01T08:15:54;10.77;;;5.80;;
21833;SDS011;11079;51.092;3.458;2022-09-01T08:18:20;9.00;;;6.05;;
21833;SDS011;11079;51.092;3.458;2022-09-01T08:20:45;9.25;;;6.32;;
21833;SDS011;11079;51.092;3.458;2022-09-01T08:23:20;7.75;;;5.28;;
21833;SDS011;11079;51.092;3.458;2022-09-01T08:25:50;8.32;;;5.82;;
21833;SDS011;11079;51.092;3.458;2022-09-01T08:28:16;12.23;;;6.38;;
21833;SDS011;11079;51.092;3.458;2022-09-01T08:30:42;12.65;;;6.38;;
21833;SDS011;11079;51.092;3.458;2022-09-01T08:33:09;12.98;;;6.20;;
21833;SDS011;11079;51.092;3.458;2022-09-01T08:35:46;9.20;;;6.20;;
21833;SDS011;11079;51.092;3.458;2022-09-01T08:38:13;20.20;;;7.60;;
21833;SDS011;11079;51.092;3.458;2022-09-01T08:40:39;7.53;;;6.20;;
21833;SDS011;11079;51.092;3.458;2022-09-01T08:43:23;10.70;;;5.78;;
21833;SDS011;11079;51.092;3.458;2022-09-01T08:45:59;7.57;;;6.05;;
21833;SDS011;11079;51.092;3.458;2022-09-01T08:48:42;9.55;;;6.03;;
21833;SDS011;11079;51.092;3.458;2022-09-01T08:56:34;11.15;;;5.90;;
21833;SDS011;11079;51.092;3.458;2022-09-01T08:59:02;11.68;;;6.43;;
21833;SDS011;11079;51.092;3.458;2022-09-01T09:02:14;11.50;;;6.57;;
21833;SDS011;11079;51.092;3.458;2022-09-01T09:07:15;8.07;;;5.38;;
21833;SDS011;11079;51.092;3.458;2022-09-01T09:10:09;11.75;;;6.40;;
21833;SDS011;11079;51.092;3.458;2022-09-01T09:15:51;10.45;;;6.00;;
21833;SDS011;11079;51.092;3.458;2022-09-01T09:18:32;12.60;;;5.85;;
21833;SDS011;11079;51.092;3.458;2022-09-01T09:21:24;9.60;;;5.32;;
21833;SDS011;11079;51.092;3.458;2022-09-01T09:24:02;10.65;;;5.68;;
21833;SDS011;11079;51.092;3.458;2022-09-01T09:26:31;8.20;;;5.57;;
21833;SDS011;11079;51.092;3.458;2022-09-01T09:28:57;10.40;;;5.50;;
21833;SDS011;11079;51.092;3.458;2022-09-01T09:34:01;7.85;;;5.32;;
21833;SDS011;11079;51.092;3.458;2022-09-01T09:36:29;8.65;;;6.00;;
21833;SDS011;11079;51.092;3.458;2022-09-01T09:41:41;8.55;;;5.85;;
21833;SDS011;11079;51.092;3.458;2022-09-01T09:44:27;6.60;;;4.95;;
21833;SDS011;11079;51.092;3.458;2022-09-01T09:46:56;12.77;;;5.32;;
21833;SDS011;11079;51.092;3.458;2022-09-01T09:49:29;9.35;;;4.57;;
21833;SDS011;11079;51.092;3.458;2022-09-01T09:54:34;8.57;;;4.75;;
21833;SDS011;11079;51.092;3.458;2022-09-01T09:59:37;9.27;;;4.95;;
21833;SDS011;11079;51.092;3.458;2022-09-01T10:02:16;10.10;;;5.45;;
21833;SDS011;11079;51.092;3.458;2022-09-01T10:08:09;9.57;;;4.75;;
21833;SDS011;11079;51.092;3.458;2022-09-01T10:13:07;4.50;;;4.10;;
21833;SDS011;11079;51.092;3.458;2022-09-01T10:15:35;7.60;;;4.25;;
21833;SDS011;11079;51.092;3.458;2022-09-01T10:18:21;7.25;;;4.03;;
21833;SDS011;11079;51.092;3.458;2022-09-01T10:20:52;9.60;;;4.38;;
21833;SDS011;11079;51.092;3.458;2022-09-01T10:23:32;11.55;;;5.45;;
21833;SDS011;11079;51.092;3.458;2022-09-01T10:26:02;8.27;;;4.50;;
21833;SDS011;11079;51.092;3.458;2022-09-01T10:29:01;7.70;;;3.90;;
21833;SDS011;11079;51.092;3.458;2022-09-01T10:31:52;7.50;;;3.85;;
21833;SDS011;11079;51.092;3.458;2022-09-01T10:34:19;6.10;;;4.25;;
21833;SDS011;11079;51.092;3.458;2022-09-01T10:36:46;11.50;;;3.55;;
21833;SDS011;11079;51.092;3.458;2022-09-01T10:39:14;6.03;;;3.33;;
21833;SDS011;11079;51.092;3.458;2022-09-01T10:41:44;8.32;;;3.20;;
21833;SDS011;11079;51.092;3.458;2022-09-01T10:44:21;7.70;;;3.28;;
21833;SDS011;11079;51.092;3.458;2022-09-01T10:46:48;7.93;;;3.65;;
21833;SDS011;11079;51.092;3.458;2022-09-01T10:52:07;5.15;;;4.10;;
21833;SDS011;11079;51.092;3.458;2022-09-01T10:59:43;7.40;;;3.30;;
21833;SDS011;11079;51.092;3.458;2022-09-01T11:07:34;6.40;;;2.38;;
21833;SDS011;11079;51.092;3.458;2022-09-01T11:15:53;22.60;;;3.90;;
21833;SDS011;11079;51.092;3.458;2022-09-01T11:20:53;3.85;;;2.60;;
21833;SDS011;11079;51.092;3.458;2022-09-01T11:30:58;15.85;;;3.00;;
21833;SDS011;11079;51.092;3.458;2022-09-01T11:38:47;24.05;;;4.15;;
21833;SDS011;11079;51.092;3.458;2022-09-01T11:41:29;5.65;;;2.42;;
21833;SDS011;11079;51.092;3.458;2022-09-01T11:44:12;5.03;;;2.50;;
21833;SDS011;11079;51.092;3.458;2022-09-01T11:46:42;5.72;;;2.30;;
21833;SDS011;11079;51.092;3.458;2022-09-01T11:51:53;4.20;;;1.90;;
21833;SDS011;11079;51.092;3.458;2022-09-01T11:54:21;2.53;;;2.30;;
21833;SDS011;11079;51.092;3.458;2022-09-01T11:56:48;5.32;;;2.50;;
21833;SDS011;11079;51.092;3.458;2022-09-01T11:59:28;3.30;;;2.92;;
21833;SDS011;11079;51.092;3.458;2022-09-01T12:01:56;4.97;;;2.38;;
21833;SDS011;11079;51.092;3.458;2022-09-01T12:04:29;3.75;;;2.40;;
21833;SDS011;11079;51.092;3.458;2022-09-01T12:07:04;5.15;;;2.65;;
21833;SDS011;11079;51.092;3.458;2022-09-01T12:09:38;5.90;;;2.22;;
21833;SDS011;11079;51.092;3.458;2022-09-01T12:14:59;5.50;;;2.88;;
21833;SDS011;11079;51.092;3.458;2022-09-01T12:17:30;4.35;;;2.20;;
21833;SDS011;11079;51.092;3.458;2022-09-01T12:19:58;4.70;;;2.40;;
21833;SDS011;11079;51.092;3.458;2022-09-01T12:22:45;5.40;;;2.65;;
21833;SDS011;11079;51.092;3.458;2022-09-01T12:25:22;4.90;;;2.60;;
21833;SDS011;11079;51.092;3.458;2022-09-01T12:27:50;5.70;;;2.75;;
21833;SDS011;11079;51.092;3.458;2022-09-01T12:30:16;3.78;;;2.47;;
21833;SDS011;11079;51.092;3.458;2022-09-01T12:32:43;2.95;;;2.40;;
21833;SDS011;11079;51.092;3.458;2022-09-01T12:35:19;7.20;;;2.63;;
21833;SDS011;11079;51.092;3.458;2022-09-01T12:37:48;2.83;;;2.60;;
21833;SDS011;11079;51.092;3.458;2022-09-01T12:40:23;3.63;;;2.40;;
21833;SDS011;11079;51.092;3.458;2022-09-01T12:42:51;3.03;;;2.28;;
21833;SDS011;11079;51.092;3.458;2022-09-01T12:48:25;3.00;;;2.40;;
21833;SDS011;11079;51.092;3.458;2022-09-01T12:51:22;5.65;;;2.67;;
21833;SDS011;11079;51.092;3.458;2022-09-01T12:53:55;4.07;;;2.10;;
21833;SDS011;11079;51.092;3.458;2022-09-01T12:56:30;5.68;;;2.50;;
21833;SDS011;11079;51.092;3.458;2022-09-01T12:59:06;3.38;;;2.25;;
21833;SDS011;11079;51.092;3.458;2022-09-01T13:01:37;5.25;;;3.28;;
21833;SDS011;11079;51.092;3.458;2022-09-01T13:04:26;2.97;;;2.65;;
21833;SDS011;11079;51.092;3.458;2022-09-01T13:06:53;2.85;;;2.30;;
21833;SDS011;11079;51.092;3.458;2022-09-01T13:09:20;3.20;;;2.45;;
21833;SDS011;11079;51.092;3.458;2022-09-01T13:11:46;4.00;;;2.17;;
21833;SDS011;11079;51.092;3.458;2022-09-01T13:14:13;4.63;;;2.20;;
21833;SDS011;11079;51.092;3.458;2022-09-01T13:16:40;4.28;;;2.20;;
21833;SDS011;11079;51.092;3.458;2022-09-01T13:19:06;2.38;;;2.10;;
21833;SDS011;11079;51.092;3.458;2022-09-01T13:21:33;6.20;;;2.30;;
21833;SDS011;11079;51.092;3.458;2022-09-01T13:24:02;11.02;;;2.75;;
21833;SDS011;11079;51.092;3.458;2022-09-01T13:26:29;6.45;;;2.17;;
21833;SDS011;11079;51.092;3.458;2022-09-01T13:28:56;3.55;;;2.10;;
21833;SDS011;11079;51.092;3.458;2022-09-01T13:31:23;4.10;;;2.35;;
21833;SDS011;11079;51.092;3.458;2022-09-01T13:33:49;3.33;;;2.15;;
21833;SDS011;11079;51.092;3.458;2022-09-01T13:36:15;7.43;;;2.47;;
21833;SDS011;11079;51.092;3.458;2022-09-01T13:38:40;4.07;;;2.03;;
21833;SDS011;11079;51.092;3.458;2022-09-01T13:41:06;3.42;;;2.00;;
21833;SDS011;11079;51.092;3.458;2022-09-01T13:43:34;3.22;;;1.50;;
21833;SDS011;11079;51.092;3.458;2022-09-01T13:46:00;3.42;;;1.90;;
21833;SDS011;11079;51.092;3.458;2022-09-01T13:48:26;5.07;;;2.13;;
21833;SDS011;11079;51.092;3.458;2022-09-01T13:50:53;6.13;;;2.22;;
21833;SDS011;11079;51.092;3.458;2022-09-01T13:53:19;4.47;;;2.03;;
21833;SDS011;11079;51.092;3.458;2022-09-01T13:55:46;3.28;;;1.90;;
21833;SDS011;11079;51.092;3.458;2022-09-01T13:58:13;2.95;;;2.15;;
21833;SDS011;11079;51.092;3.458;2022-09-01T14:00:44;6.13;;;2.30;;
21833;SDS011;11079;51.092;3.458;2022-09-01T14:03:15;3.90;;;2.17;;
21833;SDS011;11079;51.092;3.458;2022-09-01T14:05:43;4.20;;;1.85;;
21833;SDS011;11079;51.092;3.458;2022-09-01T14:08:11;5.32;;;1.67;;
21833;SDS011;11079;51.092;3.458;2022-09-01T14:10:40;3.83;;;1.88;;
21833;SDS011;11079;51.092;3.458;2022-09-01T14:13:08;3.30;;;2.13;;
21833;SDS011;11079;51.092;3.458;2022-09-01T14:15:34;4.75;;;1.90;;
21833;SDS011;11079;51.092;3.458;2022-09-01T14:18:00;7.38;;;2.17;;
21833;SDS011;11079;51.092;3.458;2022-09-01T14:20:28;5.85;;;1.85;;
21833;SDS011;11079;51.092;3.458;2022-09-01T14:23:00;3.38;;;2.08;;
21833;SDS011;11079;51.092;3.458;2022-09-01T14:25:26;5.25;;;2.00;;
21833;SDS011;11079;51.092;3.458;2022-09-01T14:27:53;2.97;;;1.88;;
21833;SDS011;11079;51.092;3.458;2022-09-01T14:30:21;5.20;;;2.03;;
21833;SDS011;11079;51.092;3.458;2022-09-01T14:32:49;3.47;;;1.77;;
21833;SDS011;11079;51.092;3.458;2022-09-01T14:35:16;4.32;;;2.10;;
21833;SDS011;11079;51.092;3.458;2022-09-01T14:37:50;6.93;;;2.00;;
21833;SDS011;11079;51.092;3.458;2022-09-01T14:40:18;2.70;;;1.65;;
21833;SDS011;11079;51.092;3.458;2022-09-01T14:42:46;2.55;;;1.90;;
21833;SDS011;11079;51.092;3.458;2022-09-01T14:45:17;3.95;;;1.90;;
21833;SDS011;11079;51.092;3.458;2022-09-01T14:47:45;6.68;;;1.45;;
21833;SDS011;11079;51.092;3.458;2022-09-01T14:50:11;4.85;;;2.15;;
21833;SDS011;11079;51.092;3.458;2022-09-01T14:52:37;3.38;;;2.03;;
21833;SDS011;11079;51.092;3.458;2022-09-01T14:55:03;5.85;;;2.25;;
21833;SDS011;11079;51.092;3.458;2022-09-01T14:57:30;2.35;;;1.67;;
21833;SDS011;11079;51.092;3.458;2022-09-01T14:59:56;3.22;;;1.60;;
21833;SDS011;11079;51.092;3.458;2022-09-01T15:02:23;6.00;;;1.85;;
21833;SDS011;11079;51.092;3.458;2022-09-01T15:04:49;4.57;;;1.88;;
21833;SDS011;11079;51.092;3.458;2022-09-01T15:07:15;6.50;;;1.90;;
21833;SDS011;11079;51.092;3.458;2022-09-01T15:09:41;6.50;;;1.98;;
21833;SDS011;11079;51.092;3.458;2022-09-01T15:12:07;4.53;;;2.13;;
21833;SDS011;11079;51.092;3.458;2022-09-01T15:14:33;6.80;;;1.70;;
21833;SDS011;11079;51.092;3.458;2022-09-01T15:16:59;4.53;;;2.38;;
21833;SDS011;11079;51.092;3.458;2022-09-01T15:19:25;3.45;;;2.00;;
21833;SDS011;11079;51.092;3.458;2022-09-01T15:21:51;4.50;;;2.20;;
21833;SDS011;11079;51.092;3.458;2022-09-01T15:24:17;5.82;;;1.95;;
21833;SDS011;11079;51.092;3.458;2022-09-01T15:26:42;3.47;;;2.20;;
21833;SDS011;11079;51.092;3.458;2022-09-01T15:29:10;7.22;;;2.42;;
21833;SDS011;11079;51.092;3.458;2022-09-01T15:31:39;2.80;;;2.00;;
21833;SDS011;11079;51.092;3.458;2022-09-01T15:34:06;3.97;;;2.05;;
21833;SDS011;11079;51.092;3.458;2022-09-01T15:36:34;5.05;;;2.30;;
21833;SDS011;11079;51.092;3.458;2022-09-01T15:39:01;5.82;;;2.47;;
21833;SDS011;11079;51.092;3.458;2022-09-01T15:41:28;6.30;;;2.45;;
21833;SDS011;11079;51.092;3.458;2022-09-01T15:43:56;6.32;;;2.22;;
21833;SDS011;11079;51.092;3.458;2022-09-01T15:46:22;6.88;;;2.47;;
21833;SDS011;11079;51.092;3.458;2022-09-01T15:48:56;5.47;;;2.50;;
21833;SDS011;11079;51.092;3.458;2022-09-01T15:53:48;6.68;;;2.40;;
21833;SDS011;11079;51.092;3.458;2022-09-01T15:56:15;7.50;;;2.30;;
21833;SDS011;11079;51.092;3.458;2022-09-01T15:58:47;4.80;;;2.40;;
21833;SDS011;11079;51.092;3.458;2022-09-01T16:01:14;7.50;;;2.78;;
21833;SDS011;11079;51.092;3.458;2022-09-01T16:03:41;5.80;;;2.92;;
21833;SDS011;11079;51.092;3.458;2022-09-01T16:06:07;5.57;;;2.58;;
21833;SDS011;11079;51.092;3.458;2022-09-01T16:08:33;8.82;;;3.03;;
21833;SDS011;11079;51.092;3.458;2022-09-01T16:11:04;6.38;;;2.70;;
21833;SDS011;11079;51.092;3.458;2022-09-01T16:13:34;4.57;;;2.80;;
21833;SDS011;11079;51.092;3.458;2022-09-01T16:18:35;5.00;;;2.80;;
21833;SDS011;11079;51.092;3.458;2022-09-01T16:21:13;7.63;;;3.20;;
21833;SDS011;11079;51.092;3.458;2022-09-01T16:23:56;5.82;;;2.92;;
21833;SDS011;11079;51.092;3.458;2022-09-01T16:26:30;5.50;;;2.78;;